Kapitan Shyriagin — D6GZ2 — position and weather

sailwx.info

Track history (hours):
 
Tides and Currents Weather Stations Pressure Air Temp Water Temp Dewpoint Dewpoint Depression Visibility Wind Speed Wind Dir Waves Ship Positions

Kapitan Shyriagin

Last reported at 2018-Jul-16 05:49 UTC. Time now 2018-Jul-16 06:30 UTC.
Position N 39°60' E 025°59'.

Length 142 m; draft 3.9 m.

Type: Cargo ship. MMSI: 616999191.

Date/timePositionNaut miles runAvg speedWind from/ knotsBaromVisibWave heightAir tempDewpointWater temp
2018-Jul-16 05:49N 39°60' E 025°59'  
2018-Jul-13 04:02N 43°39' E 033°57'0 7.1
2018-Jul-13 04:00N 43°39' E 033°58'12 7.0
2018-Jul-13 02:20N 43°46' E 034°11'7 7.1
2018-Jul-13 01:25N 43°50' E 034°18'3 7.3
2018-Jul-13 01:01N 43°51' E 034°22'4 7.3
2018-Jul-13 00:30N 43°53' E 034°26'4 7.4
2018-Jul-12 23:59N 43°56' E 034°30'4 7.6
2018-Jul-12 23:30N 43°58' E 034°35'4 7.6
2018-Jul-12 23:00N 43°60' E 034°39'4 7.8
2018-Jul-12 22:30N 44°02' E 034°44'4 7.7
2018-Jul-12 22:00N 44°04' E 034°48'4 7.7
2018-Jul-12 21:30N 44°06' E 034°53'15 7.8
2018-Jul-12 19:34N 44°14' E 035°10'0 8.1
2018-Jul-12 19:30N 44°14' E 035°11'79 7.0
2018-Jul-12 08:11N 45°11' E 036°28'2 7.3
2018-Jul-12 07:55N 45°13' E 036°28'4 6.9
2018-Jul-12 07:24N 45°17' E 036°29'5 6.5
2018-Jul-12 06:40N 45°20' E 036°34'1 7.5
2018-Jul-12 06:31N 45°20' E 036°35'3 6.9
2018-Jul-12 06:01N 45°22' E 036°40'4 7.4
2018-Jul-12 05:30N 45°26' E 036°40'3 6.7
2018-Jul-12 05:00N 45°29' E 036°39'0 0.4
2018-Jul-12 04:28N 45°29' E 036°39'0 0.0
2018-Jul-12 03:55N 45°29' E 036°39'0 0.1
2018-Jul-12 03:25N 45°29' E 036°39'0 0.0
2018-Jul-12 02:58N 45°29' E 036°39'0 0.0
2018-Jul-12 02:28N 45°29' E 036°39'0 0.0
2018-Jul-12 01:58N 45°29' E 036°39'0 0.0
2018-Jul-12 01:28N 45°29' E 036°39'1 1.8
2018-Jul-12 01:00N 45°29' E 036°40'3 7.0
2018-Jul-12 00:30N 45°33' E 036°42'  
2018-Jul-07 05:15N 46°08' E 037°09'7 7.4
2018-Jul-07 04:21N 46°02' E 037°05'3 7.4
2018-Jul-07 04:01N 45°60' E 037°04'17 7.3
2018-Jul-07 01:38N 45°44' E 036°55'2 7.3
2018-Jul-07 01:24N 45°42' E 036°54'4 7.3
2018-Jul-07 00:51N 45°38' E 036°52'15 7.4
2018-Jul-06 22:48N 45°25' E 036°42'2 7.6
2018-Jul-06 22:30N 45°23' E 036°41'3 6.4
2018-Jul-06 22:00N 45°20' E 036°38'4 7.4
2018-Jul-06 21:30N 45°19' E 036°33'8 1.0
2018-Jul-06 12:49N 45°10' E 036°31'  
Track history (hours):
 
Tides and Currents Weather Stations Pressure Air Temp Water Temp Dewpoint Dewpoint Depression Visibility Wind Speed Wind Dir Waves Ship Positions

Kapitan Shyriagin

Last reported at 2018-Jul-16 05:49 UTC. Time now 2018-Jul-16 06:30 UTC.
Position N 39°60' E 025°59'.

Length 142 m; draft 3.9 m.

Type: Cargo ship. MMSI: 616999191.

Date/timePositionNaut miles runAvg speedWind from/ knotsBaromVisibWave heightAir tempDewpointWater temp
2018-Jul-16 05:49N 39°60' E 025°59'  
2018-Jul-13 04:02N 43°39' E 033°57'0 7.1
2018-Jul-13 04:00N 43°39' E 033°58'12 7.0
2018-Jul-13 02:20N 43°46' E 034°11'7 7.1
2018-Jul-13 01:25N 43°50' E 034°18'3 7.3
2018-Jul-13 01:01N 43°51' E 034°22'4 7.3
2018-Jul-13 00:30N 43°53' E 034°26'4 7.4
2018-Jul-12 23:59N 43°56' E 034°30'4 7.6
2018-Jul-12 23:30N 43°58' E 034°35'4 7.6
2018-Jul-12 23:00N 43°60' E 034°39'4 7.8
2018-Jul-12 22:30N 44°02' E 034°44'4 7.7
2018-Jul-12 22:00N 44°04' E 034°48'4 7.7
2018-Jul-12 21:30N 44°06' E 034°53'15 7.8
2018-Jul-12 19:34N 44°14' E 035°10'0 8.1
2018-Jul-12 19:30N 44°14' E 035°11'79 7.0
2018-Jul-12 08:11N 45°11' E 036°28'2 7.3
2018-Jul-12 07:55N 45°13' E 036°28'4 6.9
2018-Jul-12 07:24N 45°17' E 036°29'5 6.5
2018-Jul-12 06:40N 45°20' E 036°34'1 7.5
2018-Jul-12 06:31N 45°20' E 036°35'3 6.9
2018-Jul-12 06:01N 45°22' E 036°40'4 7.4
2018-Jul-12 05:30N 45°26' E 036°40'3 6.7
2018-Jul-12 05:00N 45°29' E 036°39'0 0.4
2018-Jul-12 04:28N 45°29' E 036°39'0 0.0
2018-Jul-12 03:55N 45°29' E 036°39'0 0.1
2018-Jul-12 03:25N 45°29' E 036°39'0 0.0
2018-Jul-12 02:58N 45°29' E 036°39'0 0.0
2018-Jul-12 02:28N 45°29' E 036°39'0 0.0
2018-Jul-12 01:58N 45°29' E 036°39'0 0.0
2018-Jul-12 01:28N 45°29' E 036°39'1 1.8
2018-Jul-12 01:00N 45°29' E 036°40'3 7.0
2018-Jul-12 00:30N 45°33' E 036°42'  
2018-Jul-07 05:15N 46°08' E 037°09'7 7.4
2018-Jul-07 04:21N 46°02' E 037°05'3 7.4
2018-Jul-07 04:01N 45°60' E 037°04'17 7.3
2018-Jul-07 01:38N 45°44' E 036°55'2 7.3
2018-Jul-07 01:24N 45°42' E 036°54'4 7.3
2018-Jul-07 00:51N 45°38' E 036°52'15 7.4
2018-Jul-06 22:48N 45°25' E 036°42'2 7.6
2018-Jul-06 22:30N 45°23' E 036°41'3 6.4
2018-Jul-06 22:00N 45°20' E 036°38'4 7.4
2018-Jul-06 21:30N 45°19' E 036°33'8 1.0
2018-Jul-06 12:49N 45°10' E 036°31'  

Dump ship's entire track history